Data Viewer
| City | State | Eastern Time | Source | 1 Hour Temp Max | 1 Hour Temp Min | 1 Hour Dew Point Max | 1 Hour Dew Point Min | 1 Hour RH Max | 1 Hour RH Min | 1 Hour BP Max | 1 Hour BP Min | 1 Hour Precip | 1 Hour Wind Max | 1 Hour Wind Max Dir |
|---|---|---|---|---|---|---|---|---|---|---|---|---|---|---|
| Logan Twp. | NJ | 2026-05-09 03:00 | Mesonet | 56 | 53 | 45 | 44 | 70 | 64 | 29.92 | 29.90 | 0.00 | 7 | WSW |
| Logan Twp. | NJ | 2026-05-09 16:00 | Mesonet | 61 | 60 | 52 | 50 | 72 | 69 | 29.87 | 29.82 | 0.00 | 14 | SW |
| Logan Twp. | NJ | 2026-05-10 01:00 | Mesonet | 55 | 54 | 51 | 51 | 89 | 88 | 29.88 | 29.86 | 0.00 | 5 | ENE |
| Logan Twp. | NJ | 2026-05-10 00:00 | Mesonet | 55 | 54 | 51 | 50 | 88 | 86 | 29.87 | 29.85 | 0.00 | 5 | ENE |
| Logan Twp. | NJ | 2026-05-09 23:00 | Mesonet | 56 | 55 | 51 | 51 | 86 | 84 | 29.86 | 29.85 | 0.00 | 4 | NE |
| Logan Twp. | NJ | 2026-05-09 22:00 | Mesonet | 58 | 55 | 52 | 50 | 84 | 81 | 29.85 | 29.84 | 0.00 | 7 | NNE |
| Logan Twp. | NJ | 2026-05-09 21:00 | Mesonet | 59 | 57 | 52 | 51 | 81 | 77 | 29.84 | 29.83 | 0.00 | 5 | N |
| Logan Twp. | NJ | 2026-05-09 20:00 | Mesonet | 61 | 59 | 53 | 52 | 77 | 75 | 29.85 | 29.82 | 0.00 | 7 | NNW |
| Logan Twp. | NJ | 2026-05-09 19:00 | Mesonet | 61 | 60 | 53 | 52 | 75 | 75 | 29.84 | 29.82 | 0.00 | 10 | N |
| Logan Twp. | NJ | 2026-05-09 18:00 | Mesonet | 61 | 60 | 53 | 52 | 75 | 74 | 29.85 | 29.83 | 0.00 | 10 | NW |
| Logan Twp. | NJ | 2026-05-09 17:00 | Mesonet | 62 | 61 | 53 | 52 | 74 | 71 | 29.85 | 29.83 | 0.00 | 11 | WNW |
| Logan Twp. | NJ | 2026-05-09 15:00 | Mesonet | 64 | 60 | 52 | 50 | 70 | 64 | 29.87 | 29.85 | 0.00 | 16 | WSW |
| Logan Twp. | NJ | 2026-05-09 04:00 | Mesonet | 53 | 53 | 45 | 43 | 75 | 70 | 29.90 | 29.89 | 0.00 | 8 | S |
| Logan Twp. | NJ | 2026-05-09 14:00 | Mesonet | 66 | 64 | 53 | 51 | 65 | 62 | 29.86 | 29.85 | 0.00 | 10 | SSW |
| Logan Twp. | NJ | 2026-05-09 13:00 | Mesonet | 67 | 65 | 54 | 52 | 64 | 60 | 29.88 | 29.85 | 0.00 | 15 | SW |
| Logan Twp. | NJ | 2026-05-09 12:00 | Mesonet | 68 | 64 | 54 | 53 | 66 | 60 | 29.90 | 29.86 | 0.00 | 13 | S |
| Logan Twp. | NJ | 2026-05-09 11:00 | Mesonet | 65 | 63 | 55 | 53 | 72 | 66 | 29.90 | 29.88 | 0.00 | 15 | SSW |
| Logan Twp. | NJ | 2026-05-09 10:00 | Mesonet | 64 | 61 | 55 | 54 | 78 | 72 | 29.90 | 29.88 | 0.00 | 14 | SSW |
| Logan Twp. | NJ | 2026-05-09 09:00 | Mesonet | 61 | 59 | 54 | 53 | 79 | 77 | 29.90 | 29.88 | 0.00 | 16 | SSE |
| Logan Twp. | NJ | 2026-05-09 08:00 | Mesonet | 59 | 58 | 53 | 51 | 79 | 79 | 29.90 | 29.88 | 0.00 | 14 | SSE |
| Logan Twp. | NJ | 2026-05-09 07:00 | Mesonet | 58 | 57 | 52 | 50 | 79 | 78 | 29.89 | 29.87 | 0.00 | 14 | SSE |
| Logan Twp. | NJ | 2026-05-09 06:00 | Mesonet | 57 | 54 | 50 | 47 | 79 | 77 | 29.89 | 29.87 | 0.00 | 13 | S |
| Logan Twp. | NJ | 2026-05-09 05:00 | Mesonet | 54 | 53 | 48 | 45 | 78 | 75 | 29.90 | 29.88 | 0.00 | 7 | SW |
| Logan Twp. | NJ | 2026-05-10 02:00 | Mesonet | 54 | 54 | 51 | 51 | 89 | 89 | 29.86 | 29.86 | 0.00 | 5 | ENE |
data collection created in 0.0077340602874756 (queried in 0.001897) rendered in: 5.1975250244141E-5

